createdAt,value
2023-01-18T00:00:25.979Z,19.40
2023-01-18T00:01:27.077Z,7.00
2023-01-18T00:02:25.888Z,11.00
2023-01-18T00:03:25.956Z,5.80
2023-01-18T00:04:25.913Z,3.10
2023-01-18T00:05:26.023Z,6.90
2023-01-18T00:06:25.855Z,11.20
2023-01-18T00:07:38.431Z,5.40
2023-01-18T00:08:25.858Z,6.10
2023-01-18T00:09:26.029Z,8.00
2023-01-18T00:10:25.814Z,6.90
2023-01-18T00:11:25.947Z,8.60
2023-01-18T00:12:25.817Z,8.10
2023-01-18T00:13:25.761Z,4.70
2023-01-18T00:14:25.726Z,7.90
2023-01-18T00:15:25.728Z,8.10
2023-01-18T00:16:25.739Z,8.20
2023-01-18T00:17:26.001Z,6.00
2023-01-18T00:18:25.897Z,11.00
2023-01-18T00:19:25.631Z,10.60
2023-01-18T00:20:25.719Z,6.80
2023-01-18T00:21:25.693Z,14.00
2023-01-18T00:22:25.638Z,9.40
2023-01-18T00:23:25.762Z,6.90
2023-01-18T00:24:25.610Z,6.70
2023-01-18T00:25:26.335Z,5.10
2023-01-18T00:26:25.607Z,3.80
2023-01-18T00:27:25.563Z,2.50
2023-01-18T00:28:25.867Z,6.80
2023-01-18T00:29:25.756Z,4.60
2023-01-18T00:30:25.562Z,5.40
2023-01-18T00:31:25.702Z,2.20
2023-01-18T00:32:25.587Z,5.10
2023-01-18T00:33:25.463Z,3.40
2023-01-18T00:34:25.504Z,3.10
2023-01-18T00:35:25.619Z,2.90
2023-01-18T00:36:25.514Z,5.30
2023-01-18T00:37:25.442Z,10.80
2023-01-18T00:38:25.446Z,3.30
2023-01-18T00:39:26.166Z,2.50
2023-01-18T00:40:26.287Z,3.70
2023-01-18T00:41:26.011Z,4.00
2023-01-18T00:42:25.323Z,2.30
2023-01-18T00:43:26.149Z,3.70
2023-01-18T00:44:25.332Z,4.00
2023-01-18T00:45:25.328Z,1.60
2023-01-18T00:46:25.351Z,1.30
2023-01-18T00:47:25.465Z,8.60
2023-01-18T00:48:25.278Z,3.60
2023-01-18T00:49:25.904Z,6.20
2023-01-18T00:50:25.264Z,3.80
2023-01-18T00:51:25.423Z,3.50
2023-01-18T00:52:25.261Z,4.00
2023-01-18T00:53:25.514Z,4.50
2023-01-18T00:54:25.225Z,3.50
2023-01-18T00:55:25.164Z,2.30
2023-01-18T00:56:26.179Z,0.80
2023-01-18T00:57:25.108Z,9.60
2023-01-18T00:58:26.282Z,3.30
2023-01-18T00:59:25.434Z,4.30
2023-01-18T01:00:25.131Z,0.80
2023-01-18T01:01:26.764Z,1.90
2023-01-18T01:02:25.274Z,3.40
2023-01-18T01:03:25.047Z,2.60
2023-01-18T01:04:25.073Z,2.90
2023-01-18T01:05:25.770Z,1.70
2023-01-18T01:06:25.043Z,1.50
2023-01-18T01:07:24.986Z,3.00
2023-01-18T01:08:24.980Z,2.50
2023-01-18T01:09:25.038Z,2.40
2023-01-18T01:10:25.025Z,3.60
2023-01-18T01:11:25.137Z,1.80
2023-01-18T01:12:25.110Z,1.90
2023-01-18T01:13:24.886Z,1.50
2023-01-18T01:14:25.757Z,3.90
2023-01-18T01:15:25.015Z,1.80
2023-01-18T01:16:25.112Z,1.30
2023-01-18T01:17:24.943Z,3.20
2023-01-18T01:18:24.855Z,1.80
2023-01-18T01:19:25.167Z,1.80
2023-01-18T01:20:24.977Z,2.30
2023-01-18T01:21:25.383Z,4.20
2023-01-18T01:22:24.783Z,5.50
2023-01-18T01:23:24.982Z,5.80
2023-01-18T01:24:24.775Z,2.00
2023-01-18T01:25:26.411Z,1.70
2023-01-18T01:26:25.581Z,2.10
2023-01-18T01:27:25.030Z,2.50
2023-01-18T01:28:24.854Z,1.90
2023-01-18T01:29:24.817Z,1.80
2023-01-18T01:30:24.683Z,1.80
2023-01-18T01:31:25.659Z,3.70
2023-01-18T01:32:24.945Z,1.20
2023-01-18T01:33:24.634Z,1.10
2023-01-18T01:34:24.655Z,5.10
2023-01-18T01:35:24.735Z,1.70
2023-01-18T01:36:24.655Z,3.20
2023-01-18T01:37:24.608Z,2.60
2023-01-18T01:38:25.096Z,1.90
2023-01-18T01:39:25.272Z,2.90
2023-01-18T01:40:24.609Z,1.30
2023-01-18T01:41:25.518Z,2.40
2023-01-18T01:42:24.702Z,2.00
2023-01-18T01:43:24.505Z,1.70
2023-01-18T01:44:25.483Z,2.20
2023-01-18T01:45:24.952Z,1.80
2023-01-18T01:46:24.482Z,1.90
2023-01-18T01:47:25.236Z,4.40
2023-01-18T01:48:25.403Z,3.10
2023-01-18T01:49:25.321Z,2.50
2023-01-18T01:50:24.574Z,3.40
2023-01-18T01:51:25.319Z,2.10
2023-01-18T01:52:25.311Z,1.60
2023-01-18T01:53:25.170Z,1.60
2023-01-18T01:54:24.387Z,1.50
2023-01-18T01:55:24.316Z,1.10
2023-01-18T01:56:24.410Z,0.90
2023-01-18T01:57:24.385Z,1.90
2023-01-18T01:58:24.368Z,3.10
2023-01-18T01:59:25.413Z,3.30
2023-01-18T02:00:25.257Z,0.60
2023-01-18T02:01:25.049Z,2.90
2023-01-18T02:02:24.298Z,0.90
2023-01-18T02:03:25.352Z,1.10
2023-01-18T02:04:24.956Z,1.90
2023-01-18T02:05:24.437Z,3.50
2023-01-18T02:06:24.621Z,3.90
2023-01-18T02:07:24.197Z,5.00
2023-01-18T02:08:24.369Z,2.50
2023-01-18T02:09:24.884Z,2.20
2023-01-18T02:10:24.119Z,1.50
2023-01-18T02:11:24.328Z,1.10
2023-01-18T02:12:24.842Z,1.80
2023-01-18T02:13:24.181Z,1.10
2023-01-18T02:14:24.045Z,2.20
2023-01-18T02:15:24.319Z,1.40
2023-01-18T02:16:25.012Z,1.90
2023-01-18T02:17:24.220Z,2.10
2023-01-18T02:18:25.040Z,1.90
2023-01-18T02:19:23.987Z,1.40
2023-01-18T02:20:24.017Z,3.20
2023-01-18T02:21:23.959Z,1.30
2023-01-18T02:22:23.980Z,3.40
2023-01-18T02:23:25.140Z,1.00
2023-01-18T02:24:24.056Z,0.90
2023-01-18T02:25:24.680Z,1.00
2023-01-18T02:26:23.944Z,2.00
2023-01-18T02:27:23.990Z,1.80
2023-01-18T02:28:23.913Z,1.20
2023-01-18T02:29:23.984Z,1.90
2023-01-18T02:30:24.001Z,1.80
2023-01-18T02:31:24.013Z,4.00
2023-01-18T02:32:24.929Z,2.00
2023-01-18T02:33:23.885Z,2.50
2023-01-18T02:34:23.807Z,1.90
2023-01-18T02:35:23.973Z,2.30
2023-01-18T02:36:23.871Z,5.00
2023-01-18T02:37:23.963Z,1.00
2023-01-18T02:38:23.766Z,2.00
2023-01-18T02:39:24.491Z,1.50
2023-01-18T02:40:23.780Z,1.50
2023-01-18T02:41:23.765Z,1.30
2023-01-18T02:42:23.697Z,1.10
2023-01-18T02:43:23.676Z,1.40
2023-01-18T02:44:24.619Z,2.90
2023-01-18T02:45:23.648Z,0.70
2023-01-18T02:46:24.625Z,1.20
2023-01-18T02:47:23.715Z,1.90
2023-01-18T02:48:23.738Z,0.80
2023-01-18T02:49:24.339Z,0.90
2023-01-18T02:50:24.329Z,1.10
2023-01-18T02:51:23.617Z,2.50
2023-01-18T02:52:23.546Z,2.30
2023-01-18T02:53:23.922Z,1.70
2023-01-18T02:54:24.416Z,1.50
2023-01-18T02:55:23.657Z,5.20
2023-01-18T02:56:23.550Z,1.30
2023-01-18T02:57:23.615Z,0.80
2023-01-18T02:58:23.595Z,1.70
2023-01-18T02:59:23.523Z,1.20
2023-01-18T03:00:23.499Z,1.00
2023-01-18T03:01:23.731Z,0.50
2023-01-18T03:02:23.383Z,1.50
2023-01-18T03:03:23.449Z,0.50
2023-01-18T03:04:23.331Z,0.70
2023-01-18T03:05:23.551Z,0.90
2023-01-18T03:06:23.314Z,3.90
2023-01-18T03:07:23.377Z,2.60
2023-01-18T03:08:23.373Z,1.40
2023-01-18T03:09:23.295Z,3.10
2023-01-18T03:10:24.015Z,1.40
2023-01-18T03:11:23.642Z,1.40
2023-01-18T03:12:23.282Z,1.30
2023-01-18T03:13:24.213Z,0.80
2023-01-18T03:14:24.200Z,1.60
2023-01-18T03:15:23.238Z,0.70
2023-01-18T03:16:24.151Z,1.20
